sensor_id;sensor_type;location;lat;lon;timestamp;pressure;altitude;pressure_sealevel;temperature;humidity
35577;BME280;21680;52.400;16.920;2023-03-04T00:02:14;100725.20;;;1.29;91.14
35577;BME280;21680;52.400;16.920;2023-03-04T00:04:39;100723.61;;;1.31;91.12
35577;BME280;21680;52.400;16.920;2023-03-04T00:07:05;100732.93;;;1.32;91.04
35577;BME280;21680;52.400;16.920;2023-03-04T00:09:30;100717.25;;;1.34;91.05
35577;BME280;21680;52.400;16.920;2023-03-04T00:11:55;100725.52;;;1.36;90.96
35577;BME280;21680;52.400;16.920;2023-03-04T00:14:20;100723.76;;;1.38;90.75
35577;BME280;21680;52.400;16.920;2023-03-04T00:16:46;100725.69;;;1.39;90.69
35577;BME280;21680;52.400;16.920;2023-03-04T00:19:13;100721.81;;;1.39;90.48
35577;BME280;21680;52.400;16.920;2023-03-04T00:21:38;100720.75;;;1.39;90.49
35577;BME280;21680;52.400;16.920;2023-03-04T00:24:04;100721.98;;;1.39;90.47
35577;BME280;21680;52.400;16.920;2023-03-04T00:26:29;100713.53;;;1.39;90.40
35577;BME280;21680;52.400;16.920;2023-03-04T00:28:54;100724.10;;;1.39;90.31
35577;BME280;21680;52.400;16.920;2023-03-04T00:31:19;100705.61;;;1.39;90.28
35577;BME280;21680;52.400;16.920;2023-03-04T00:33:45;100710.02;;;1.39;90.02
35577;BME280;21680;52.400;16.920;2023-03-04T00:36:10;100702.27;;;1.37;90.16
35577;BME280;21680;52.400;16.920;2023-03-04T00:38:35;100699.81;;;1.37;90.17
35577;BME280;21680;52.400;16.920;2023-03-04T00:41:01;100700.16;;;1.38;89.97
35577;BME280;21680;52.400;16.920;2023-03-04T00:43:27;100695.58;;;1.38;89.91
35577;BME280;21680;52.400;16.920;2023-03-04T00:45:54;100695.93;;;1.38;89.86
35577;BME280;21680;52.400;16.920;2023-03-04T00:48:19;100696.29;;;1.39;89.82
35577;BME280;21680;52.400;16.920;2023-03-04T00:50:44;100683.08;;;1.38;89.94
35577;BME280;21680;52.400;16.920;2023-03-04T00:53:10;100684.32;;;1.39;89.81
35577;BME280;21680;52.400;16.920;2023-03-04T00:55:35;100676.39;;;1.37;89.75
35577;BME280;21680;52.400;16.920;2023-03-04T00:58:01;100675.34;;;1.37;89.82
35577;BME280;21680;52.400;16.920;2023-03-04T01:00:26;100670.77;;;1.37;89.73
35577;BME280;21680;52.400;16.920;2023-03-04T01:02:52;100666.55;;;1.37;89.64
35577;BME280;21680;52.400;16.920;2023-03-04T01:05:17;100665.30;;;1.38;89.71
35577;BME280;21680;52.400;16.920;2023-03-04T01:07:43;100668.30;;;1.39;89.68
35577;BME280;21680;52.400;16.920;2023-03-04T01:10:10;100659.84;;;1.38;89.44
35577;BME280;21680;52.400;16.920;2023-03-04T01:12:36;100652.80;;;1.37;89.54
35577;BME280;21680;52.400;16.920;2023-03-04T01:15:02;100643.83;;;1.38;89.47
35577;BME280;21680;52.400;16.920;2023-03-04T01:17:27;100642.59;;;1.37;89.38
35577;BME280;21680;52.400;16.920;2023-03-04T01:19:53;100628.68;;;1.38;89.42
35577;BME280;21680;52.400;16.920;2023-03-04T01:22:18;100625.52;;;1.38;89.51
35577;BME280;21680;52.400;16.920;2023-03-04T01:24:44;100618.29;;;1.38;89.33
35577;BME280;21680;52.400;16.920;2023-03-04T01:27:10;100616.53;;;1.39;89.24
35577;BME280;21680;52.400;16.920;2023-03-04T01:29:36;100605.80;;;1.38;89.36
35577;BME280;21680;52.400;16.920;2023-03-04T01:32:01;100611.95;;;1.39;89.32
35577;BME280;21680;52.400;16.920;2023-03-04T01:34:26;100599.10;;;1.40;89.18
35577;BME280;21680;52.400;16.920;2023-03-04T01:36:52;100590.81;;;1.41;89.07
35577;BME280;21680;52.400;16.920;2023-03-04T01:39:17;100583.94;;;1.42;89.03
35577;BME280;21680;52.400;16.920;2023-03-04T01:41:42;100578.66;;;1.41;88.82
35577;BME280;21680;52.400;16.920;2023-03-04T01:44:08;100571.62;;;1.41;88.89
35577;BME280;21680;52.400;16.920;2023-03-04T01:46:35;100568.27;;;1.42;88.68
35577;BME280;21680;52.400;16.920;2023-03-04T01:49:01;100565.09;;;1.42;88.57
35577;BME280;21680;52.400;16.920;2023-03-04T01:51:27;100563.16;;;1.42;88.41
35577;BME280;21680;52.400;16.920;2023-03-04T01:53:52;100548.20;;;1.42;88.39
35577;BME280;21680;52.400;16.920;2023-03-04T01:56:29;100546.61;;;1.42;88.26
35577;BME280;21680;52.400;16.920;2023-03-04T01:59:17;100548.55;;;1.42;88.29
35577;BME280;21680;52.400;16.920;2023-03-04T02:01:49;100544.50;;;1.42;88.22
35577;BME280;21680;52.400;16.920;2023-03-04T02:04:17;100540.09;;;1.42;88.09
35577;BME280;21680;52.400;16.920;2023-03-04T02:06:44;100542.74;;;1.42;87.91
35577;BME280;21680;52.400;16.920;2023-03-04T02:09:10;100537.98;;;1.42;87.97
35577;BME280;21680;52.400;16.920;2023-03-04T02:11:37;100526.89;;;1.41;87.91
35577;BME280;21680;52.400;16.920;2023-03-04T02:14:03;100530.94;;;1.43;87.86
35577;BME280;21680;52.400;16.920;2023-03-04T02:16:29;100523.72;;;1.43;88.06
35577;BME280;21680;52.400;16.920;2023-03-04T02:18:55;100528.11;;;1.43;87.78
35577;BME280;21680;52.400;16.920;2023-03-04T02:21:31;100523.55;;;1.43;87.80
35577;BME280;21680;52.400;16.920;2023-03-04T02:24:23;100518.61;;;1.42;87.75
35577;BME280;21680;52.400;16.920;2023-03-04T02:26:51;100506.98;;;1.44;87.56
35577;BME280;21680;52.400;16.920;2023-03-04T02:29:17;100506.27;;;1.45;87.52
35577;BME280;21680;52.400;16.920;2023-03-04T02:31:47;100500.63;;;1.46;87.29
35577;BME280;21680;52.400;16.920;2023-03-04T02:34:14;100505.89;;;1.48;87.37
35577;BME280;21680;52.400;16.920;2023-03-04T02:36:41;100514.34;;;1.49;87.06
35577;BME280;21680;52.400;16.920;2023-03-04T02:41:46;100502.71;;;1.48;86.81
35577;BME280;21680;52.400;16.920;2023-03-04T02:44:21;100506.23;;;1.48;86.68
35577;BME280;21680;52.400;16.920;2023-03-04T02:46:48;100503.42;;;1.48;86.50
35577;BME280;21680;52.400;16.920;2023-03-04T02:49:14;100499.02;;;1.47;86.51
35577;BME280;21680;52.400;16.920;2023-03-04T02:51:39;100496.04;;;1.47;86.57
35577;BME280;21680;52.400;16.920;2023-03-04T02:54:14;100493.04;;;1.47;86.49
35577;BME280;21680;52.400;16.920;2023-03-04T02:56:44;100492.52;;;1.46;86.42
35577;BME280;21680;52.400;16.920;2023-03-04T02:59:10;100489.36;;;1.46;86.23
35577;BME280;21680;52.400;16.920;2023-03-04T03:01:35;100485.30;;;1.47;86.46
35577;BME280;21680;52.400;16.920;2023-03-04T03:04:00;100495.48;;;1.49;86.33
35577;BME280;21680;52.400;16.920;2023-03-04T03:06:26;100490.02;;;1.51;86.26
35577;BME280;21680;52.400;16.920;2023-03-04T03:08:51;100493.70;;;1.52;86.10
35577;BME280;21680;52.400;16.920;2023-03-04T03:11:16;100488.60;;;1.52;85.79
35577;BME280;21680;52.400;16.920;2023-03-04T03:13:41;100493.53;;;1.51;85.69
35577;BME280;21680;52.400;16.920;2023-03-04T03:16:07;100490.88;;;1.52;85.66
35577;BME280;21680;52.400;16.920;2023-03-04T03:18:32;100488.76;;;1.54;85.79
35577;BME280;21680;52.400;16.920;2023-03-04T03:20:57;100485.42;;;1.53;85.57
35577;BME280;21680;52.400;16.920;2023-03-04T03:23:22;100488.59;;;1.52;85.63
35577;BME280;21680;52.400;16.920;2023-03-04T03:25:48;100490.17;;;1.52;85.56
35577;BME280;21680;52.400;16.920;2023-03-04T03:28:13;100492.98;;;1.53;85.67
35577;BME280;21680;52.400;16.920;2023-03-04T03:30:38;100490.87;;;1.54;85.61
35577;BME280;21680;52.400;16.920;2023-03-04T03:33:04;100487.87;;;1.55;85.32
35577;BME280;21680;52.400;16.920;2023-03-04T03:35:29;100492.25;;;1.56;85.25
35577;BME280;21680;52.400;16.920;2023-03-04T03:37:55;100490.14;;;1.58;85.06
35577;BME280;21680;52.400;16.920;2023-03-04T03:40:20;100489.96;;;1.58;85.18
35577;BME280;21680;52.400;16.920;2023-03-04T03:42:45;100482.73;;;1.57;85.08
35577;BME280;21680;52.400;16.920;2023-03-04T03:45:11;100486.43;;;1.58;85.21
35577;BME280;21680;52.400;16.920;2023-03-04T03:47:37;100479.73;;;1.58;85.14
35577;BME280;21680;52.400;16.920;2023-03-04T03:50:03;100484.66;;;1.58;85.01
35577;BME280;21680;52.400;16.920;2023-03-04T03:52:28;100492.04;;;1.61;85.05
35577;BME280;21680;52.400;16.920;2023-03-04T03:54:53;100479.20;;;1.60;85.00
35577;BME280;21680;52.400;16.920;2023-03-04T03:57:18;100477.42;;;1.62;84.86
35577;BME280;21680;52.400;16.920;2023-03-04T03:59:44;100481.63;;;1.63;84.75
35577;BME280;21680;52.400;16.920;2023-03-04T04:02:09;100489.73;;;1.64;84.56
35577;BME280;21680;52.400;16.920;2023-03-04T04:04:34;100475.98;;;1.64;84.53
35577;BME280;21680;52.400;16.920;2023-03-04T04:06:59;100481.44;;;1.64;84.54
35577;BME280;21680;52.400;16.920;2023-03-04T04:09:25;100480.56;;;1.64;84.55
35577;BME280;21680;52.400;16.920;2023-03-04T04:11:50;100484.25;;;1.66;84.47
35577;BME280;21680;52.400;16.920;2023-03-04T04:14:15;100488.12;;;1.65;84.21
35577;BME280;21680;52.400;16.920;2023-03-04T04:16:41;100483.73;;;1.66;84.18
35577;BME280;21680;52.400;16.920;2023-03-04T04:19:06;100483.89;;;1.65;84.34
35577;BME280;21680;52.400;16.920;2023-03-04T04:21:32;100477.02;;;1.67;84.17
35577;BME280;21680;52.400;16.920;2023-03-04T04:23:57;100483.70;;;1.68;84.29
35577;BME280;21680;52.400;16.920;2023-03-04T04:26:22;100480.00;;;1.67;84.31
35577;BME280;21680;52.400;16.920;2023-03-04T04:28:48;100484.05;;;1.67;84.03
35577;BME280;21680;52.400;16.920;2023-03-04T04:31:14;100476.84;;;1.66;83.99
35577;BME280;21680;52.400;16.920;2023-03-04T04:33:39;100480.02;;;1.66;84.04
35577;BME280;21680;52.400;16.920;2023-03-04T04:36:04;100477.72;;;1.67;83.93
35577;BME280;21680;52.400;16.920;2023-03-04T04:38:30;100473.13;;;1.68;83.79
35577;BME280;21680;52.400;16.920;2023-03-04T04:40:57;100475.95;;;1.68;83.78
35577;BME280;21680;52.400;16.920;2023-03-04T04:43:23;100473.15;;;1.66;83.67
35577;BME280;21680;52.400;16.920;2023-03-04T04:45:49;100466.82;;;1.64;83.70
35577;BME280;21680;52.400;16.920;2023-03-04T04:48:14;100472.45;;;1.64;83.67
35577;BME280;21680;52.400;16.920;2023-03-04T04:50:39;100462.42;;;1.65;83.59
35577;BME280;21680;52.400;16.920;2023-03-04T04:53:04;100459.95;;;1.64;83.90
35577;BME280;21680;52.400;16.920;2023-03-04T04:55:30;100467.17;;;1.65;83.69
35577;BME280;21680;52.400;16.920;2023-03-04T04:57:55;100460.82;;;1.66;83.62
35577;BME280;21680;52.400;16.920;2023-03-04T05:00:20;100455.55;;;1.64;83.48
35577;BME280;21680;52.400;16.920;2023-03-04T05:02:46;100442.88;;;1.63;83.57
35577;BME280;21680;52.400;16.920;2023-03-04T05:05:11;100441.65;;;1.63;83.50
35577;BME280;21680;52.400;16.920;2023-03-04T05:07:37;100433.20;;;1.62;83.53
35577;BME280;21680;52.400;16.920;2023-03-04T05:10:03;100435.32;;;1.62;83.59
35577;BME280;21680;52.400;16.920;2023-03-04T05:12:29;100432.34;;;1.61;83.62
35577;BME280;21680;52.400;16.920;2023-03-04T05:14:54;100431.09;;;1.61;83.69
35577;BME280;21680;52.400;16.920;2023-03-04T05:17:19;100433.73;;;1.61;83.67
35577;BME280;21680;52.400;16.920;2023-03-04T05:19:45;100423.02;;;1.59;83.74
35577;BME280;21680;52.400;16.920;2023-03-04T05:22:10;100422.83;;;1.60;83.65
35577;BME280;21680;52.400;16.920;2023-03-04T05:24:35;100417.21;;;1.59;83.70
35577;BME280;21680;52.400;16.920;2023-03-04T05:27:01;100414.05;;;1.58;83.74
35577;BME280;21680;52.400;16.920;2023-03-04T05:29:27;100415.46;;;1.58;83.74
35577;BME280;21680;52.400;16.920;2023-03-04T05:31:52;100417.59;;;1.57;83.73
35577;BME280;21680;52.400;16.920;2023-03-04T05:34:18;100416.89;;;1.56;83.97
35577;BME280;21680;52.400;16.920;2023-03-04T05:36:43;100418.12;;;1.56;83.84
35577;BME280;21680;52.400;16.920;2023-03-04T05:39:09;100419.36;;;1.55;83.88
35577;BME280;21680;52.400;16.920;2023-03-04T05:41:34;100422.88;;;1.55;83.90
35577;BME280;21680;52.400;16.920;2023-03-04T05:43:59;100419.90;;;1.53;83.98
35577;BME280;21680;52.400;16.920;2023-03-04T05:46:25;100419.90;;;1.54;83.96
35577;BME280;21680;52.400;16.920;2023-03-04T05:48:51;100427.83;;;1.54;84.22
35577;BME280;21680;52.400;16.920;2023-03-04T05:51:17;100420.06;;;1.55;84.25
35577;BME280;21680;52.400;16.920;2023-03-04T05:53:43;100424.29;;;1.55;84.11
35577;BME280;21680;52.400;16.920;2023-03-04T05:56:11;100423.23;;;1.56;84.35
35577;BME280;21680;52.400;16.920;2023-03-04T05:58:36;100421.45;;;1.57;84.29
35577;BME280;21680;52.400;16.920;2023-03-04T06:01:02;100424.45;;;1.57;84.50
35577;BME280;21680;52.400;16.920;2023-03-04T06:03:28;100420.04;;;1.59;84.49
35577;BME280;21680;52.400;16.920;2023-03-04T06:05:53;100414.93;;;1.58;84.57
35577;BME280;21680;52.400;16.920;2023-03-04T06:08:19;100412.81;;;1.59;84.45
35577;BME280;21680;52.400;16.920;2023-03-04T06:10:44;100409.27;;;1.60;84.61
35577;BME280;21680;52.400;16.920;2023-03-04T06:13:10;100413.33;;;1.60;84.79
35577;BME280;21680;52.400;16.920;2023-03-04T06:15:36;100408.21;;;1.60;84.68
35577;BME280;21680;52.400;16.920;2023-03-04T06:18:02;100406.28;;;1.60;84.78
35577;BME280;21680;52.400;16.920;2023-03-04T06:20:28;100406.27;;;1.62;84.65
35577;BME280;21680;52.400;16.920;2023-03-04T06:22:53;100410.98;;;1.64;84.79
35577;BME280;21680;52.400;16.920;2023-03-04T06:25:18;100415.39;;;1.66;85.00
35577;BME280;21680;52.400;16.920;2023-03-04T06:27:44;100418.53;;;1.68;84.97
35577;BME280;21680;52.400;16.920;2023-03-04T06:30:10;100413.42;;;1.69;84.91
35577;BME280;21680;52.400;16.920;2023-03-04T06:32:35;100412.88;;;1.69;84.77
35577;BME280;21680;52.400;16.920;2023-03-04T06:35:00;100416.90;;;1.71;85.04
35577;BME280;21680;52.400;16.920;2023-03-04T06:37:26;100413.17;;;1.74;85.10
35577;BME280;21680;52.400;16.920;2023-03-04T06:39:51;100412.62;;;1.77;85.13
35577;BME280;21680;52.400;16.920;2023-03-04T06:42:16;100412.42;;;1.78;85.04
35577;BME280;21680;52.400;16.920;2023-03-04T06:44:42;100410.98;;;1.80;85.35
35577;BME280;21680;52.400;16.920;2023-03-04T06:47:07;100400.72;;;1.84;85.33
35577;BME280;21680;52.400;16.920;2023-03-04T06:49:32;100414.25;;;1.88;85.35
35577;BME280;21680;52.400;16.920;2023-03-04T06:51:58;100415.45;;;1.91;85.25
35577;BME280;21680;52.400;16.920;2023-03-04T06:54:23;100417.72;;;1.92;85.64
35577;BME280;21680;52.400;16.920;2023-03-04T06:56:49;100416.80;;;1.94;85.40
35577;BME280;21680;52.400;16.920;2023-03-04T06:59:14;100413.27;;;1.96;85.61
35577;BME280;21680;52.400;16.920;2023-03-04T07:01:39;100407.08;;;1.98;85.51
35577;BME280;21680;52.400;16.920;2023-03-04T07:04:05;100403.52;;;2.01;85.61
35577;BME280;21680;52.400;16.920;2023-03-04T07:06:30;100408.61;;;2.02;85.40
35577;BME280;21680;52.400;16.920;2023-03-04T07:08:56;100408.05;;;2.05;85.60
35577;BME280;21680;52.400;16.920;2023-03-04T07:11:22;100402.56;;;2.07;85.53
35577;BME280;21680;52.400;16.920;2023-03-04T07:13:48;100399.73;;;2.08;85.56
35577;BME280;21680;52.400;16.920;2023-03-04T07:16:17;100405.48;;;2.12;85.68
35577;BME280;21680;52.400;16.920;2023-03-04T07:18:44;100408.64;;;2.14;85.64
35577;BME280;21680;52.400;16.920;2023-03-04T07:21:10;100405.27;;;2.16;85.65
35577;BME280;21680;52.400;16.920;2023-03-04T07:23:36;100411.41;;;2.18;85.81
35577;BME280;21680;52.400;16.920;2023-03-04T07:26:03;100408.38;;;2.20;85.82
35577;BME280;21680;52.400;16.920;2023-03-04T07:28:28;100406.25;;;2.22;85.69
35577;BME280;21680;52.400;16.920;2023-03-04T07:30:54;100402.38;;;2.21;85.66
35577;BME280;21680;52.400;16.920;2023-03-04T07:33:19;100409.23;;;2.22;85.75
35577;BME280;21680;52.400;16.920;2023-03-04T07:35:44;100411.67;;;2.24;85.77
35577;BME280;21680;52.400;16.920;2023-03-04T07:38:10;100412.56;;;2.24;85.84
35577;BME280;21680;52.400;16.920;2023-03-04T07:40:35;100407.96;;;2.25;86.06
35577;BME280;21680;52.400;16.920;2023-03-04T07:43:01;100405.85;;;2.25;85.84
35577;BME280;21680;52.400;16.920;2023-03-04T07:45:26;100407.24;;;2.26;85.98
35577;BME280;21680;52.400;16.920;2023-03-04T07:47:52;100405.30;;;2.26;85.94
35577;BME280;21680;52.400;16.920;2023-03-04T07:50:19;100401.22;;;2.28;86.15
35577;BME280;21680;52.400;16.920;2023-03-04T07:52:46;100403.48;;;2.31;85.98
35577;BME280;21680;52.400;16.920;2023-03-04T07:55:14;100404.02;;;2.31;86.08
35577;BME280;21680;52.400;16.920;2023-03-04T07:57:44;100397.64;;;2.33;86.00
35577;BME280;21680;52.400;16.920;2023-03-04T08:00:11;100399.57;;;2.34;86.06
35577;BME280;21680;52.400;16.920;2023-03-04T08:02:38;100398.80;;;2.37;86.18
35577;BME280;21680;52.400;16.920;2023-03-04T08:05:04;100398.41;;;2.40;86.24
35577;BME280;21680;52.400;16.920;2023-03-04T08:07:30;100397.33;;;2.42;86.12
35577;BME280;21680;52.400;16.920;2023-03-04T08:09:55;100390.05;;;2.46;86.14
35577;BME280;21680;52.400;16.920;2023-03-04T08:12:21;100387.17;;;2.49;86.13
35577;BME280;21680;52.400;16.920;2023-03-04T08:14:48;100389.93;;;2.53;86.42
35577;BME280;21680;52.400;16.920;2023-03-04T08:17:13;100387.75;;;2.58;86.47
35577;BME280;21680;52.400;16.920;2023-03-04T08:19:39;100390.12;;;2.62;86.44
35577;BME280;21680;52.400;16.920;2023-03-04T08:22:05;100391.50;;;2.64;86.39
35577;BME280;21680;52.400;16.920;2023-03-04T08:24:30;100388.13;;;2.66;86.41
35577;BME280;21680;52.400;16.920;2023-03-04T08:26:56;100388.11;;;2.67;86.31
35577;BME280;21680;52.400;16.920;2023-03-04T08:29:23;100387.52;;;2.70;86.50
35577;BME280;21680;52.400;16.920;2023-03-04T08:31:50;100395.61;;;2.72;86.36
35577;BME280;21680;52.400;16.920;2023-03-04T08:34:17;100379.91;;;2.73;86.45
35577;BME280;21680;52.400;16.920;2023-03-04T08:36:43;100382.68;;;2.75;86.54
35577;BME280;21680;52.400;16.920;2023-03-04T08:39:11;100383.38;;;2.76;86.57
35577;BME280;21680;52.400;16.920;2023-03-04T08:41:38;100381.40;;;2.78;86.56
35577;BME280;21680;52.400;16.920;2023-03-04T08:44:05;100389.84;;;2.80;86.55
35577;BME280;21680;52.400;16.920;2023-03-04T08:46:32;100383.24;;;2.84;86.77
35577;BME280;21680;52.400;16.920;2023-03-04T08:48:58;100375.98;;;2.86;86.78
35577;BME280;21680;52.400;16.920;2023-03-04T08:51:24;100375.23;;;2.89;86.92
35577;BME280;21680;52.400;16.920;2023-03-04T08:53:50;100374.71;;;2.88;86.86
35577;BME280;21680;52.400;16.920;2023-03-04T08:56:15;100372.61;;;2.87;86.68
35577;BME280;21680;52.400;16.920;2023-03-04T08:58:41;100370.13;;;2.88;86.96
35577;BME280;21680;52.400;16.920;2023-03-04T09:01:08;100377.84;;;2.91;87.00
35577;BME280;21680;52.400;16.920;2023-03-04T09:03:34;100372.34;;;2.92;87.13
35577;BME280;21680;52.400;16.920;2023-03-04T09:06:01;100369.01;;;2.91;86.99
35577;BME280;21680;52.400;16.920;2023-03-04T09:08:26;100367.61;;;2.91;87.08
35577;BME280;21680;52.400;16.920;2023-03-04T09:10:53;100375.73;;;2.91;87.32
35577;BME280;21680;52.400;16.920;2023-03-04T09:13:19;100371.52;;;2.89;87.36
35577;BME280;21680;52.400;16.920;2023-03-04T09:15:46;100373.27;;;2.89;87.58
35577;BME280;21680;52.400;16.920;2023-03-04T09:18:12;100381.95;;;2.88;87.51
35577;BME280;21680;52.400;16.920;2023-03-04T09:20:38;100384.84;;;2.85;87.53
35577;BME280;21680;52.400;16.920;2023-03-04T09:23:04;100379.95;;;2.81;87.62
35577;BME280;21680;52.400;16.920;2023-03-04T09:25:29;100377.81;;;2.82;87.76
35577;BME280;21680;52.400;16.920;2023-03-04T09:27:54;100377.04;;;2.86;88.09
35577;BME280;21680;52.400;16.920;2023-03-04T09:30:20;100370.47;;;2.89;88.03
35577;BME280;21680;52.400;16.920;2023-03-04T09:32:46;100370.59;;;2.91;88.10
35577;BME280;21680;52.400;16.920;2023-03-04T09:35:11;100366.60;;;2.98;88.24
35577;BME280;21680;52.400;16.920;2023-03-04T09:37:37;100368.76;;;3.06;88.34
35577;BME280;21680;52.400;16.920;2023-03-04T09:40:03;100361.29;;;3.10;88.34
35577;BME280;21680;52.400;16.920;2023-03-04T09:42:35;100359.33;;;3.10;88.53
35577;BME280;21680;52.400;16.920;2023-03-04T09:45:04;100361.39;;;3.14;88.65
35577;BME280;21680;52.400;16.920;2023-03-04T09:47:33;100356.93;;;3.16;88.91
35577;BME280;21680;52.400;16.920;2023-03-04T09:50:02;100359.00;;;3.19;88.94
35577;BME280;21680;52.400;16.920;2023-03-04T09:53:04;100354.41;;;3.20;89.04
35577;BME280;21680;52.400;16.920;2023-03-04T09:55:38;100354.90;;;3.21;89.14
35577;BME280;21680;52.400;16.920;2023-03-04T10:03:59;100351.40;;;3.30;89.53
35577;BME280;21680;52.400;16.920;2023-03-04T10:06:26;100348.92;;;3.39;89.64
35577;BME280;21680;52.400;16.920;2023-03-04T10:08:53;100348.35;;;3.50;89.90
35577;BME280;21680;52.400;16.920;2023-03-04T10:11:49;100344.30;;;3.59;89.95
35577;BME280;21680;52.400;16.920;2023-03-04T10:14:39;100346.10;;;3.66;89.94
35577;BME280;21680;52.400;16.920;2023-03-04T10:17:12;100348.60;;;3.74;90.09
35577;BME280;21680;52.400;16.920;2023-03-04T10:19:50;100341.55;;;3.81;90.34
35577;BME280;21680;52.400;16.920;2023-03-04T10:22:41;100341.92;;;3.89;90.34
35577;BME280;21680;52.400;16.920;2023-03-04T10:25:24;100336.63;;;3.97;90.37
35577;BME280;21680;52.400;16.920;2023-03-04T10:27:54;100333.48;;;4.03;90.41
35577;BME280;21680;52.400;16.920;2023-03-04T10:30:47;100334.46;;;4.07;90.37
35577;BME280;21680;52.400;16.920;2023-03-04T10:33:20;100329.44;;;4.10;90.15
35577;BME280;21680;52.400;16.920;2023-03-04T10:35:58;100325.85;;;4.12;90.14
35577;BME280;21680;52.400;16.920;2023-03-04T10:38:25;100323.71;;;4.21;89.95
35577;BME280;21680;52.400;16.920;2023-03-04T10:40:53;100318.42;;;4.28;89.79
35577;BME280;21680;52.400;16.920;2023-03-04T10:43:19;100324.98;;;4.36;89.34
35577;BME280;21680;52.400;16.920;2023-03-04T10:45:46;100321.13;;;4.41;89.14
35577;BME280;21680;52.400;16.920;2023-03-04T10:48:24;100319.58;;;4.47;88.85
35577;BME280;21680;52.400;16.920;2023-03-04T10:50:50;100314.89;;;4.58;88.64
35577;BME280;21680;52.400;16.920;2023-03-04T10:53:42;100313.10;;;4.66;88.46
35577;BME280;21680;52.400;16.920;2023-03-04T10:56:34;100300.27;;;4.77;88.26
35577;BME280;21680;52.400;16.920;2023-03-04T11:04:56;100293.12;;;4.86;86.92
35577;BME280;21680;52.400;16.920;2023-03-04T11:07:29;100294.77;;;4.98;86.35
35577;BME280;21680;52.400;16.920;2023-03-04T11:09:54;100294.90;;;5.06;86.13
35577;BME280;21680;52.400;16.920;2023-03-04T11:12:31;100287.02;;;5.10;85.89
35577;BME280;21680;52.400;16.920;2023-03-04T11:14:57;100288.40;;;5.23;85.99
35577;BME280;21680;52.400;16.920;2023-03-04T11:17:25;100287.28;;;5.37;85.62
35577;BME280;21680;52.400;16.920;2023-03-04T11:19:56;100290.96;;;5.45;85.37
35577;BME280;21680;52.400;16.920;2023-03-04T11:22:25;100287.10;;;5.44;84.43
35577;BME280;21680;52.400;16.920;2023-03-04T11:24:58;100290.75;;;5.46;84.67
35577;BME280;21680;52.400;16.920;2023-03-04T11:27:35;100291.98;;;5.53;84.35
35577;BME280;21680;52.400;16.920;2023-03-04T11:32:44;100293.51;;;5.49;83.10
35577;BME280;21680;52.400;16.920;2023-03-04T11:35:58;100290.91;;;5.53;83.65
35577;BME280;21680;52.400;16.920;2023-03-04T11:38:32;100284.75;;;5.58;83.64
35577;BME280;21680;52.400;16.920;2023-03-04T11:41:22;100277.91;;;5.62;83.36
35577;BME280;21680;52.400;16.920;2023-03-04T11:43:49;100289.91;;;5.69;83.24
35577;BME280;21680;52.400;16.920;2023-03-04T11:57:56;100297.99;;;5.78;79.73
35577;BME280;21680;52.400;16.920;2023-03-04T12:03:22;100289.73;;;5.75;79.89
35577;BME280;21680;52.400;16.920;2023-03-04T12:13:46;100272.71;;;5.81;78.73
35577;BME280;21680;52.400;16.920;2023-03-04T12:19:37;100265.44;;;6.29;78.48
35577;BME280;21680;52.400;16.920;2023-03-04T12:22:24;100265.33;;;6.37;77.66
35577;BME280;21680;52.400;16.920;2023-03-04T12:25:23;100261.44;;;6.32;77.58
35577;BME280;21680;52.400;16.920;2023-03-04T12:36:37;100259.23;;;6.23;76.31
35577;BME280;21680;52.400;16.920;2023-03-04T12:44:57;100277.54;;;5.92;74.50
35577;BME280;21680;52.400;16.920;2023-03-04T12:47:34;100274.81;;;5.77;74.39
35577;BME280;21680;52.400;16.920;2023-03-04T12:50:23;100276.82;;;5.69;74.18
35577;BME280;21680;52.400;16.920;2023-03-04T12:55:41;100272.31;;;5.59;74.56
35577;BME280;21680;52.400;16.920;2023-03-04T12:58:15;100268.71;;;5.54;74.78
35577;BME280;21680;52.400;16.920;2023-03-04T13:01:03;100280.98;;;5.53;74.78
35577;BME280;21680;52.400;16.920;2023-03-04T13:03:46;100291.88;;;5.50;74.67
35577;BME280;21680;52.400;16.920;2023-03-04T13:11:50;100334.35;;;5.27;74.46
35577;BME280;21680;52.400;16.920;2023-03-04T13:16:49;100331.72;;;4.35;74.93
35577;BME280;21680;52.400;16.920;2023-03-04T13:19:45;100332.09;;;4.10;75.43
35577;BME280;21680;52.400;16.920;2023-03-04T13:24:53;100341.38;;;3.90;76.29
35577;BME280;21680;52.400;16.920;2023-03-04T13:27:43;100336.63;;;3.89;76.55
35577;BME280;21680;52.400;16.920;2023-03-04T13:32:56;100337.66;;;3.89;77.12
35577;BME280;21680;52.400;16.920;2023-03-04T13:41:14;100345.85;;;3.87;77.90
35577;BME280;21680;52.400;16.920;2023-03-04T13:43:41;100345.99;;;3.89;78.00
35577;BME280;21680;52.400;16.920;2023-03-04T13:51:33;100350.03;;;3.90;78.48
35577;BME280;21680;52.400;16.920;2023-03-04T13:56:43;100347.30;;;4.02;78.75
35577;BME280;21680;52.400;16.920;2023-03-04T14:04:31;100357.78;;;4.00;78.81
35577;BME280;21680;52.400;16.920;2023-03-04T14:06:59;100352.45;;;4.01;79.02
35577;BME280;21680;52.400;16.920;2023-03-04T14:09:34;100358.59;;;4.03;79.17
35577;BME280;21680;52.400;16.920;2023-03-04T14:12:02;100348.23;;;4.00;79.16
35577;BME280;21680;52.400;16.920;2023-03-04T14:14:34;100340.06;;;4.02;79.52
35577;BME280;21680;52.400;16.920;2023-03-04T14:17:05;100342.88;;;4.10;79.86
35577;BME280;21680;52.400;16.920;2023-03-04T14:19:35;100345.69;;;4.27;79.88
35577;BME280;21680;52.400;16.920;2023-03-04T14:22:19;100344.61;;;4.20;79.05
35577;BME280;21680;52.400;16.920;2023-03-04T14:25:05;100347.95;;;4.12;79.18
35577;BME280;21680;52.400;16.920;2023-03-04T14:27:33;100350.16;;;4.17;79.31
35577;BME280;21680;52.400;16.920;2023-03-04T14:30:03;100349.59;;;4.18;79.19